Time;durP1;ratioP1;P1;durP2;ratioP2;P2;SDS_P1;SDS_P2;PMS_P1;PMS_P2;Temp;Humidity;BMP_temperature;BMP_pressure;BME280_temperature;BME280_humidity;BME280_pressure;Samples;Min_cycle;Max_cycle;Signal;HPM_P1;HPM_P2
2023/01/19 00:05:05;;;;;;;11.53;9.00;;;2.10;99.90;;;;;;2615422;54;20158;-69
2023/01/19 00:08:15;;;;;;;21.53;11.40;;;2.00;99.90;;;;;;2614983;54;20398;-68
2023/01/19 00:10:43;;;;;;;12.63;10.83;;;1.90;99.90;;;;;;2614874;39;20876;-72
2023/01/19 00:16:30;;;;;;;13.60;12.20;;;1.90;99.90;;;;;;2615874;54;20430;-68
2023/01/19 00:22:18;;;;;;;20.17;11.33;;;1.90;99.90;;;;;;2615860;39;20544;-69
2023/01/19 00:28:06;;;;;;;16.63;13.37;;;2.00;99.90;;;;;;2615572;54;20139;-69
2023/01/19 00:33:53;;;;;;;17.93;12.20;;;1.90;99.90;;;;;;2613908;54;20295;-70
2023/01/19 00:39:42;;;;;;;15.53;11.97;;;2.10;99.90;;;;;;2615279;54;20130;-69
2023/01/19 00:45:31;;;;;;;12.67;9.50;;;2.20;99.90;;;;;;2615468;31;20840;-70
2023/01/19 00:51:19;;;;;;;16.27;10.23;;;2.20;99.90;;;;;;2615267;54;20976;-68
2023/01/19 00:57:07;;;;;;;13.70;11.27;;;2.40;99.90;;;;;;2615569;54;20748;-69
2023/01/19 01:02:55;;;;;;;17.30;14.47;;;2.30;99.90;;;;;;2614394;54;20270;-69
2023/01/19 01:08:42;;;;;;;10.20;9.17;;;2.20;99.90;;;;;;2615185;54;20746;-69
2023/01/19 01:14:30;;;;;;;16.30;12.03;;;2.20;99.90;;;;;;2614677;54;20130;-69
2023/01/19 01:20:21;;;;;;;14.67;11.50;;;2.30;99.90;;;;;;2614544;54;20450;-69
2023/01/19 01:26:08;;;;;;;15.13;11.57;;;2.20;99.90;;;;;;2614214;54;20393;-69
2023/01/19 01:31:56;;;;;;;19.53;11.90;;;2.20;99.90;;;;;;2615023;54;20648;-69
2023/01/19 01:37:44;;;;;;;14.80;11.03;;;2.10;99.90;;;;;;2614655;46;20169;-71
2023/01/19 01:43:45;;;;;;;19.07;13.33;;;2.20;99.90;;;;;;2615534;54;20168;-69
2023/01/19 01:49:33;;;;;;;14.70;10.17;;;2.10;99.90;;;;;;2614653;54;20407;-69
2023/01/19 01:55:23;;;;;;;13.33;11.87;;;2.00;99.90;;;;;;2614064;54;20150;-69
2023/01/19 02:04:33;;;;;;;17.30;11.90;;;2.00;99.90;;;;;;2613690;54;20386;-68
2023/01/19 02:16:28;;;;;;;18.57;12.20;;;2.10;99.90;;;;;;2614527;54;20399;-70
2023/01/19 02:22:26;;;;;;;10.90;9.23;;;2.20;99.90;;;;;;2613445;54;20419;-70
2023/01/19 02:28:14;;;;;;;11.53;8.40;;;2.30;99.90;;;;;;2613742;54;20382;-68
2023/01/19 02:34:04;;;;;;;12.90;9.80;;;2.30;99.90;;;;;;2614319;54;20207;-69
2023/01/19 02:39:57;;;;;;;12.57;11.23;;;2.20;99.90;;;;;;2614207;54;20399;-69
2023/01/19 02:45:46;;;;;;;18.47;13.80;;;2.20;99.90;;;;;;2613341;54;20398;-68
2023/01/19 02:51:34;;;;;;;16.00;12.83;;;2.10;99.90;;;;;;2613849;54;20474;-69
2023/01/19 03:13:55;;;;;;;11.70;8.70;;;2.30;99.90;;;;;;2613885;54;20378;-68
2023/01/19 03:19:46;;;;;;;12.03;8.07;;;2.20;99.90;;;;;;2615160;39;20788;-69
2023/01/19 03:25:36;;;;;;;17.80;10.63;;;2.10;99.90;;;;;;2614808;39;20764;-68
2023/01/19 03:31:27;;;;;;;16.67;12.43;;;2.20;99.90;;;;;;2615277;39;20771;-69
2023/01/19 03:37:16;;;;;;;11.90;10.20;;;2.30;99.90;;;;;;2615235;54;20415;-70
2023/01/19 03:43:05;;;;;;;13.47;10.17;;;2.30;99.90;;;;;;2614367;54;20382;-70
2023/01/19 03:48:53;;;;;;;11.20;8.83;;;2.30;99.90;;;;;;2615899;54;20378;-70
2023/01/19 03:54:41;;;;;;;12.13;10.27;;;2.40;99.90;;;;;;2615568;54;20363;-68
2023/01/19 04:00:29;;;;;;;12.50;10.00;;;2.40;99.90;;;;;;2616045;54;20138;-68
2023/01/19 04:06:17;;;;;;;12.17;9.83;;;2.40;99.90;;;;;;2614637;54;20366;-70
2023/01/19 04:12:05;;;;;;;11.27;7.70;;;2.40;99.90;;;;;;2616293;39;20782;-70
2023/01/19 04:17:55;;;;;;;14.13;9.50;;;2.40;99.90;;;;;;2615921;54;20387;-70
2023/01/19 04:23:44;;;;;;;13.23;10.17;;;2.20;99.90;;;;;;2615390;54;20382;-71
2023/01/19 04:29:32;;;;;;;10.70;7.73;;;1.80;99.90;;;;;;2614396;39;20875;-71
2023/01/19 04:35:21;;;;;;;12.73;7.90;;;1.30;99.90;;;;;;2614567;54;20267;-69
2023/01/19 04:41:08;;;;;;;17.10;12.90;;;1.10;99.90;;;;;;2614591;54;20409;-71
2023/01/19 04:46:56;;;;;;;19.37;11.03;;;1.00;99.90;;;;;;2615432;54;20138;-71
2023/01/19 04:52:44;;;;;;;11.80;7.07;;;1.00;99.90;;;;;;2615459;54;20130;-72
2023/01/19 04:58:32;;;;;;;17.80;11.57;;;1.10;99.90;;;;;;2614577;54;20379;-71
2023/01/19 05:04:21;;;;;;;17.23;9.43;;;1.00;99.90;;;;;;2614894;54;20286;-72
2023/01/19 05:10:09;;;;;;;13.20;9.90;;;1.00;99.90;;;;;;2614214;54;20375;-71
2023/01/19 05:15:57;;;;;;;9.77;7.23;;;1.00;99.90;;;;;;2613756;54;20415;-72
2023/01/19 05:21:45;;;;;;;21.43;12.00;;;1.10;99.90;;;;;;2615302;54;20119;-70
2023/01/19 05:27:32;;;;;;;18.90;10.90;;;1.20;99.90;;;;;;2615520;54;20675;-71
2023/01/19 05:33:21;;;;;;;15.13;9.23;;;1.20;99.90;;;;;;2615235;54;20138;-71
2023/01/19 05:39:09;;;;;;;18.20;12.43;;;1.20;99.90;;;;;;2615304;54;20374;-70
2023/01/19 05:44:58;;;;;;;18.13;10.20;;;1.10;99.90;;;;;;2614565;54;20267;-70
2023/01/19 05:50:48;;;;;;;19.53;11.00;;;1.10;99.90;;;;;;2613972;39;21303;-70
2023/01/19 05:53:51;;;;;;;21.30;11.13;;;1.10;99.90;;;;;;2614879;39;21022;-71
2023/01/19 05:56:17;;;;;;;11.73;7.33;;;1.10;99.90;;;;;;2613754;54;20426;-72
2023/01/19 06:02:05;;;;;;;12.63;8.87;;;1.10;99.90;;;;;;2614539;54;20170;-71
2023/01/19 06:07:55;;;;;;;15.03;9.20;;;1.20;99.90;;;;;;2614477;54;20417;-70
2023/01/19 06:13:43;;;;;;;10.40;6.27;;;1.10;99.90;;;;;;2615074;54;20391;-71
2023/01/19 06:19:31;;;;;;;12.27;9.00;;;1.10;99.90;;;;;;2614105;54;20142;-71
2023/01/19 06:25:19;;;;;;;10.90;8.37;;;1.10;99.90;;;;;;2613636;54;20170;-69
2023/01/19 06:31:07;;;;;;;13.57;8.53;;;1.10;99.90;;;;;;2612896;54;20150;-71
2023/01/19 06:36:55;;;;;;;11.93;8.23;;;0.90;99.90;;;;;;2615031;54;20129;-71
2023/01/19 06:42:42;;;;;;;19.10;10.03;;;1.00;99.90;;;;;;2615143;54;20391;-72
2023/01/19 06:48:30;;;;;;;17.73;11.67;;;1.00;99.90;;;;;;2613676;54;20199;-71
2023/01/19 06:54:18;;;;;;;14.20;9.00;;;1.00;99.90;;;;;;2613686;54;20134;-71
2023/01/19 07:00:07;;;;;;;14.47;10.90;;;1.00;99.90;;;;;;2614394;54;20370;-72
2023/01/19 07:05:55;;;;;;;10.77;8.00;;;1.00;99.90;;;;;;2610347;39;20914;-72
2023/01/19 07:11:43;;;;;;;12.63;8.80;;;1.00;99.90;;;;;;2613478;31;20640;-71
2023/01/19 07:17:31;;;;;;;11.80;8.57;;;1.10;99.90;;;;;;2613529;54;20243;-70
2023/01/19 07:23:19;;;;;;;9.90;6.50;;;1.20;99.90;;;;;;2614289;54;20247;-70
2023/01/19 07:29:07;;;;;;;18.00;9.10;;;1.40;99.90;;;;;;2613807;47;20146;-71
2023/01/19 07:34:54;;;;;;;7.97;5.80;;;1.40;99.90;;;;;;2612995;54;20396;-70
2023/01/19 07:40:43;;;;;;;10.37;7.27;;;1.40;99.90;;;;;;2613819;54;20123;-71
2023/01/19 07:46:31;;;;;;;16.93;12.17;;;1.50;99.90;;;;;;2614444;54;20534;-70
2023/01/19 07:52:19;;;;;;;18.80;11.47;;;1.50;99.90;;;;;;2614618;54;20499;-70
2023/01/19 07:58:07;;;;;;;18.07;11.50;;;1.60;99.90;;;;;;2614242;54;20161;-71
2023/01/19 08:07:17;;;;;;;27.47;12.33;;;1.60;99.90;;;;;;2614449;54;20407;-70
2023/01/19 08:13:04;;;;;;;26.57;14.13;;;1.60;99.90;;;;;;2614045;54;20494;-70
2023/01/19 08:18:52;;;;;;;22.37;15.00;;;1.70;99.90;;;;;;2615163;54;20246;-70
2023/01/19 08:24:40;;;;;;;22.47;13.03;;;1.70;99.90;;;;;;2613791;54;20151;-69
2023/01/19 08:30:29;;;;;;;15.50;8.60;;;1.80;99.90;;;;;;2614257;54;20263;-70
2023/01/19 08:36:17;;;;;;;19.80;10.30;;;1.80;99.90;;;;;;2614230;54;21185;-70
2023/01/19 08:42:04;;;;;;;22.50;15.43;;;1.80;99.90;;;;;;2615351;54;21118;-69
2023/01/19 08:47:55;;;;;;;26.13;16.07;;;1.90;99.90;;;;;;2614630;54;20138;-70
2023/01/19 08:53:43;;;;;;;20.50;13.37;;;1.90;99.90;;;;;;2615263;39;20437;-71
2023/01/19 08:59:30;;;;;;;32.13;17.30;;;1.90;99.90;;;;;;2614967;54;20431;-71
2023/01/19 09:02:42;;;;;;;37.27;18.60;;;1.90;99.90;;;;;;2614487;47;20970;-72
2023/01/19 09:05:08;;;;;;;23.67;11.87;;;1.90;99.90;;;;;;2612711;54;20150;-70
2023/01/19 09:10:55;;;;;;;26.37;16.93;;;2.00;99.90;;;;;;2613466;54;20134;-71
2023/01/19 09:16:43;;;;;;;29.40;17.93;;;2.10;99.90;;;;;;2614537;54;20146;-71
2023/01/19 09:22:32;;;;;;;29.30;16.23;;;2.10;99.90;;;;;;2614222;46;20150;-71
2023/01/19 09:25:09;;;;;;;20.67;14.73;;;2.10;99.90;;;;;;2612455;54;20461;-70
2023/01/19 09:27:35;;;;;;;24.20;14.37;;;2.10;99.90;;;;;;2613794;46;20447;-72
2023/01/19 09:33:23;;;;;;;31.53;19.80;;;2.20;99.90;;;;;;2615134;54;20125;-70
2023/01/19 09:39:14;;;;;;;24.17;15.50;;;2.20;99.90;;;;;;2613121;54;20913;-72
2023/01/19 09:45:05;;;;;;;25.13;14.40;;;2.30;99.90;;;;;;2614327;54;20371;-70
2023/01/19 09:50:57;;;;;;;19.63;13.20;;;2.30;99.90;;;;;;2614272;54;20463;-71
2023/01/19 09:56:47;;;;;;;26.33;16.77;;;2.30;99.90;;;;;;2614969;54;20945;-72
2023/01/19 10:02:42;;;;;;;25.90;15.80;;;2.50;99.90;;;;;;2614452;54;20422;-72
2023/01/19 10:15:22;;;;;;;22.13;12.73;;;2.30;99.90;;;;;;2613692;54;20388;-71
2023/01/19 10:27:41;;;;;;;27.20;14.47;;;2.30;99.90;;;;;;2614355;54;20423;-73
2023/01/19 10:33:30;;;;;;;41.27;19.03;;;2.30;99.90;;;;;;2613769;54;20453;-73
2023/01/19 10:39:18;;;;;;;26.50;17.73;;;2.40;99.90;;;;;;2613841;54;21143;-72
2023/01/19 10:45:22;;;;;;;39.30;24.40;;;2.50;99.90;;;;;;2614479;54;20398;-71
2023/01/19 10:51:10;;;;;;;41.10;24.73;;;2.60;99.90;;;;;;2613575;54;20998;-72
2023/01/19 10:57:07;;;;;;;37.90;24.67;;;2.60;99.90;;;;;;2614978;54;20394;-71
2023/01/19 11:07:13;;;;;;;44.87;24.40;;;2.70;99.90;;;;;;2614742;54;20481;-71
2023/01/19 11:09:39;;;;;;;32.10;20.30;;;2.80;99.90;;;;;;2615108;54;20430;-72
2023/01/19 11:24:38;;;;;;;34.40;23.20;;;2.80;99.90;;;;;;2615304;54;20934;-73
2023/01/19 11:30:26;;;;;;;44.17;24.53;;;2.80;99.90;;;;;;2613168;54;20386;-72
2023/01/19 11:36:31;;;;;;;39.47;18.87;;;2.80;99.90;;;;;;2613941;54;20911;-73
2023/01/19 11:42:21;;;;;;;43.90;25.07;;;2.80;99.90;;;;;;2614527;54;20366;-72
2023/01/19 11:48:33;;;;;;;36.17;22.30;;;2.80;99.90;;;;;;2614213;54;20378;-72
2023/01/19 11:54:28;;;;;;;32.03;23.20;;;2.70;99.90;;;;;;2614564;54;20956;-72
2023/01/19 12:07:13;;;;;;;40.83;22.83;;;2.80;99.90;;;;;;2616100;54;20386;-72
2023/01/19 12:13:02;;;;;;;49.50;26.00;;;2.90;99.90;;;;;;2614201;54;20374;-71
2023/01/19 12:19:15;;;;;;;94.53;52.37;;;2.90;99.90;;;;;;2615008;54;20420;-73
2023/01/19 12:32:12;;;;;;;60.40;32.93;;;3.20;99.90;;;;;;2613069;54;20378;-72
2023/01/19 12:37:59;;;;;;;39.13;24.50;;;3.00;99.90;;;;;;2614003;54;20997;-72
2023/01/19 12:50:18;;;;;;;46.17;23.37;;;3.10;99.90;;;;;;2612836;54;20503;-72
2023/01/19 12:56:08;;;;;;;35.00;21.13;;;3.30;99.90;;;;;;2612798;54;20390;-72
2023/01/19 13:02:16;;;;;;;38.20;23.00;;;3.30;99.90;;;;;;2614010;54;20969;-73
2023/01/19 13:12:04;;;;;;;40.10;20.43;;;3.30;99.90;;;;;;2613298;54;20418;-72
2023/01/19 13:17:53;;;;;;;40.40;22.03;;;3.30;99.90;;;;;;2615098;54;20411;-71
2023/01/19 13:23:50;;;;;;;44.10;22.27;;;3.30;99.90;;;;;;2612654;54;20419;-71
2023/01/19 13:29:41;;;;;;;45.23;24.77;;;3.30;99.90;;;;;;2615331;39;20450;-72
2023/01/19 13:35:29;;;;;;;32.97;22.07;;;3.70;99.90;;;;;;2615077;54;20997;-73
2023/01/19 13:41:22;;;;;;;36.47;21.07;;;4.20;99.90;;;;;;2615558;39;20940;-72
2023/01/19 14:00:28;;;;;;;32.50;23.33;;;3.40;99.90;;;;;;2613713;54;20406;-70
2023/01/19 14:06:39;;;;;;;35.97;22.90;;;3.60;99.90;;;;;;2613848;54;20435;-72
2023/01/19 14:12:26;;;;;;;43.57;26.00;;;4.70;99.90;;;;;;2612860;39;20762;-71
2023/01/19 14:15:33;;;;;;;42.23;29.07;;;4.30;99.90;;;;;;2614404;54;20395;-71
2023/01/19 14:21:21;;;;;;;28.13;19.07;;;3.90;99.90;;;;;;2612514;54;20524;-71
2023/01/19 14:33:44;;;;;;;30.07;21.17;;;3.80;99.90;;;;;;2615339;54;20522;-71
2023/01/19 14:39:35;;;;;;;28.93;21.93;;;3.70;99.90;;;;;;2614157;54;20434;-73
2023/01/19 14:45:45;;;;;;;31.50;18.50;;;3.40;99.90;;;;;;2614648;54;20432;-70
2023/01/19 14:51:33;;;;;;;28.10;18.83;;;3.60;99.90;;;;;;2614152;54;20383;-71
2023/01/19 14:57:20;;;;;;;21.77;16.27;;;3.70;99.90;;;;;;2613582;54;20130;-70
2023/01/19 15:03:09;;;;;;;45.03;27.43;;;3.30;99.90;;;;;;2612432;54;20207;-71
2023/01/19 15:08:57;;;;;;;42.93;23.50;;;3.20;99.90;;;;;;2613465;54;20374;-70
2023/01/19 15:24:21;;;;;;;33.37;19.47;;;3.00;99.90;;;;;;2615276;54;20475;-71
2023/01/19 15:30:19;;;;;;;32.03;19.70;;;2.90;99.90;;;;;;2615788;54;20129;-73
2023/01/19 15:36:12;;;;;;;30.17;17.53;;;2.80;99.90;;;;;;2616315;54;20466;-71
2023/01/19 15:42:00;;;;;;;33.63;19.77;;;2.70;99.90;;;;;;2615933;39;20779;-72
2023/01/19 15:47:47;;;;;;;28.77;16.30;;;2.50;99.90;;;;;;2615938;54;20263;-72
2023/01/19 15:53:35;;;;;;;23.87;16.57;;;2.40;99.90;;;;;;2616324;54;20165;-71
2023/01/19 15:59:23;;;;;;;27.17;17.90;;;2.20;99.90;;;;;;2616884;39;20630;-71
2023/01/19 16:05:10;;;;;;;39.17;20.23;;;2.40;99.90;;;;;;2615638;54;20166;-71
2023/01/19 16:20:35;;;;;;;17.00;11.47;;;2.30;99.90;;;;;;2615988;54;20419;-71
2023/01/19 16:26:32;;;;;;;30.17;17.27;;;2.20;99.90;;;;;;2615012;46;20408;-70
2023/01/19 16:32:19;;;;;;;31.40;20.50;;;2.30;99.90;;;;;;2615542;54;20387;-70
2023/01/19 16:38:08;;;;;;;29.43;17.40;;;2.30;99.90;;;;;;2616241;54;20154;-71
2023/01/19 16:43:57;;;;;;;22.20;15.70;;;2.20;99.90;;;;;;2615776;54;20474;-72
2023/01/19 16:49:44;;;;;;;23.90;16.43;;;2.30;99.90;;;;;;2614446;54;20558;-72
2023/01/19 16:55:32;;;;;;;26.30;15.50;;;2.10;99.90;;;;;;2613233;46;20137;-70
2023/01/19 17:01:20;;;;;;;27.27;14.50;;;2.20;99.90;;;;;;2612619;54;20154;-72
2023/01/19 17:07:08;;;;;;;26.23;15.27;;;2.30;99.90;;;;;;2613375;54;20405;-70
2023/01/19 17:12:58;;;;;;;27.87;17.60;;;2.20;99.90;;;;;;2615295;54;20130;-71
2023/01/19 17:15:34;;;;;;;21.90;14.37;;;2.20;99.90;;;;;;2615525;54;20416;-71
2023/01/19 17:18:00;;;;;;;27.40;15.53;;;2.20;99.90;;;;;;2614078;54;20451;-72
2023/01/19 17:23:49;;;;;;;27.37;16.87;;;2.30;99.90;;;;;;2614875;54;20154;-70
2023/01/19 17:29:36;;;;;;;22.80;16.47;;;2.10;99.90;;;;;;2615213;46;20949;-73
2023/01/19 17:35:24;;;;;;;33.53;17.87;;;2.20;99.90;;;;;;2615797;46;20146;-71
2023/01/19 17:41:16;;;;;;;27.07;19.00;;;2.30;99.90;;;;;;2614914;54;20142;-71
2023/01/19 17:47:04;;;;;;;30.00;18.37;;;2.40;99.90;;;;;;2615789;54;20385;-72
2023/01/19 17:52:51;;;;;;;26.87;18.30;;;2.30;99.90;;;;;;2615438;54;20143;-70
2023/01/19 17:58:40;;;;;;;35.10;23.80;;;2.40;99.90;;;;;;2615012;54;20149;-71
2023/01/19 18:04:27;;;;;;;37.37;24.60;;;2.40;99.90;;;;;;2614982;54;20403;-71
2023/01/19 18:10:15;;;;;;;40.97;26.17;;;2.50;99.90;;;;;;2614924;54;20182;-71
2023/01/19 18:20:06;;;;;;;36.70;25.30;;;2.50;99.90;;;;;;2614217;54;20380;-72
2023/01/19 18:26:05;;;;;;;36.97;24.23;;;2.40;99.90;;;;;;2614946;54;20418;-72
2023/01/19 18:31:53;;;;;;;38.77;25.07;;;2.30;99.90;;;;;;2614580;54;20460;-73
2023/01/19 18:37:40;;;;;;;49.80;28.50;;;2.30;99.90;;;;;;2614366;54;20122;-71
2023/01/19 18:43:28;;;;;;;41.67;22.30;;;2.30;99.90;;;;;;2615095;54;20162;-73
2023/01/19 18:49:16;;;;;;;36.67;22.90;;;2.30;99.90;;;;;;2614607;54;20394;-70
2023/01/19 18:55:04;;;;;;;30.80;21.30;;;2.30;99.90;;;;;;2614763;54;20129;-70
2023/01/19 19:00:52;;;;;;;35.50;23.13;;;2.30;99.90;;;;;;2614185;54;20383;-72
2023/01/19 19:06:39;;;;;;;35.03;22.20;;;2.40;99.90;;;;;;2614100;54;20154;-72
2023/01/19 19:12:27;;;;;;;35.53;22.83;;;2.40;99.90;;;;;;2613789;54;20247;-72
2023/01/19 19:15:31;;;;;;;26.37;19.77;;;2.20;99.90;;;;;;2614360;54;20531;-71
2023/01/19 19:21:37;;;;;;;30.10;19.20;;;2.10;99.90;;;;;;2613135;54;20429;-71
2023/01/19 19:27:26;;;;;;;37.73;19.10;;;1.90;99.90;;;;;;2613894;46;20554;-72
2023/01/19 19:33:13;;;;;;;33.77;21.10;;;1.90;99.90;;;;;;2615426;39;21245;-71
2023/01/19 19:39:01;;;;;;;34.67;19.83;;;1.90;99.90;;;;;;2613986;54;20134;-72
2023/01/19 19:44:51;;;;;;;30.60;19.70;;;1.90;99.90;;;;;;2614673;54;20640;-71
2023/01/19 19:50:39;;;;;;;27.67;17.77;;;1.70;99.90;;;;;;2613734;54;20392;-71
2023/01/19 19:56:29;;;;;;;36.17;19.30;;;1.60;99.90;;;;;;2614182;54;20166;-71
2023/01/19 20:02:17;;;;;;;31.30;19.60;;;1.70;99.90;;;;;;2615465;54;20402;-72
2023/01/19 20:08:04;;;;;;;34.20;19.80;;;1.80;99.90;;;;;;2615647;54;20122;-71
2023/01/19 20:13:52;;;;;;;32.07;20.30;;;1.90;99.90;;;;;;2614096;54;20162;-71
2023/01/19 20:17:04;;;;;;;39.57;20.00;;;1.90;99.90;;;;;;2613821;39;20651;-71
2023/01/19 20:19:30;;;;;;;31.57;20.10;;;1.90;99.90;;;;;;2614492;47;20403;-70
2023/01/19 20:25:17;;;;;;;32.00;18.87;;;2.00;99.90;;;;;;2615235;54;20134;-71
2023/01/19 20:31:12;;;;;;;31.00;19.50;;;2.10;99.90;;;;;;2615115;54;20661;-71
2023/01/19 20:37:00;;;;;;;33.20;18.80;;;2.20;99.90;;;;;;2613791;54;20901;-71
2023/01/19 20:42:48;;;;;;;18.67;12.03;;;2.20;99.90;;;;;;2614595;54;21533;-70
2023/01/19 20:48:37;;;;;;;29.03;19.43;;;2.20;99.90;;;;;;2613381;54;20130;-72
2023/01/19 20:54:27;;;;;;;31.10;18.50;;;2.10;99.90;;;;;;2613547;54;20394;-73
2023/01/19 21:00:14;;;;;;;33.07;19.67;;;2.10;99.90;;;;;;2615462;54;20427;-71
2023/01/19 21:06:02;;;;;;;36.50;19.53;;;1.80;99.90;;;;;;2614793;54;20121;-71
2023/01/19 21:11:50;;;;;;;29.47;17.07;;;1.60;99.90;;;;;;2614153;54;20238;-72
2023/01/19 21:21:37;;;;;;;30.90;18.30;;;1.70;99.90;;;;;;2615636;39;20886;-73
2023/01/19 21:27:24;;;;;;;35.10;20.23;;;1.70;99.90;;;;;;2616044;54;20399;-71
2023/01/19 21:33:12;;;;;;;29.60;19.37;;;1.90;99.90;;;;;;2614635;54;20122;-72
2023/01/19 21:39:00;;;;;;;29.90;20.10;;;2.00;99.90;;;;;;2614625;54;20182;-71
2023/01/19 21:44:48;;;;;;;33.73;22.10;;;2.10;99.90;;;;;;2615318;39;20580;-72
2023/01/19 21:50:37;;;;;;;39.13;21.67;;;2.10;99.90;;;;;;2613295;54;20494;-71
2023/01/19 21:56:26;;;;;;;31.77;19.83;;;2.20;99.90;;;;;;2614934;39;20794;-71
2023/01/19 22:02:14;;;;;;;27.90;19.60;;;2.20;99.90;;;;;;2614796;54;20382;-71
2023/01/19 22:08:02;;;;;;;35.63;21.57;;;2.20;99.90;;;;;;2615577;54;20146;-72
2023/01/19 22:13:50;;;;;;;34.80;22.77;;;2.30;99.90;;;;;;2615372;54;20118;-71
2023/01/19 22:17:05;;;;;;;37.40;24.57;;;2.30;99.90;;;;;;2614447;54;20397;-72
2023/01/19 22:19:30;;;;;;;34.70;19.37;;;2.40;99.90;;;;;;2614941;47;20994;-71
2023/01/19 22:25:22;;;;;;;30.70;20.03;;;2.30;99.90;;;;;;2613830;39;20306;-71
2023/01/19 22:31:12;;;;;;;33.57;17.63;;;2.40;99.90;;;;;;2612681;54;20464;-71
2023/01/19 22:37:00;;;;;;;32.33;20.83;;;2.50;99.90;;;;;;2614689;54;20403;-71
2023/01/19 22:42:48;;;;;;;43.30;20.57;;;2.50;99.90;;;;;;2613934;54;20170;-72
2023/01/19 22:48:36;;;;;;;38.43;21.37;;;2.40;99.90;;;;;;2612549;54;20142;-71
2023/01/19 22:54:23;;;;;;;35.97;21.90;;;2.40;99.90;;;;;;2614022;54;20660;-71
2023/01/19 23:00:12;;;;;;;34.93;21.17;;;2.40;99.90;;;;;;2612222;54;20137;-70
2023/01/19 23:06:05;;;;;;;37.67;19.97;;;2.30;99.90;;;;;;2614708;54;20403;-71
2023/01/19 23:11:52;;;;;;;41.97;19.20;;;2.30;99.90;;;;;;2615062;54;20378;-71
2023/01/19 23:21:36;;;;;;;37.03;20.33;;;2.30;99.90;;;;;;2614677;54;20382;-71
2023/01/19 23:27:23;;;;;;;43.67;23.50;;;2.20;99.90;;;;;;2615345;54;20423;-70
2023/01/19 23:33:11;;;;;;;32.30;21.77;;;2.20;99.90;;;;;;2614617;54;20130;-71
2023/01/19 23:39:38;;;;;;;41.87;22.17;;;2.20;99.90;;;;;;2615132;46;20146;-70
2023/01/19 23:45:26;;;;;;;38.30;23.93;;;2.20;99.90;;;;;;2615571;54;20403;-73
2023/01/19 23:51:16;;;;;;;39.27;21.40;;;2.10;99.90;;;;;;2614812;54;20130;-71
2023/01/19 23:57:04;;;;;;;38.13;23.53;;;2.10;99.90;;;;;;2615362;54;20390;-72
